Flag for USA

Past Weather in 37°36'23.0"N, 78°22'51.6"W, USA — Yesterday and Last 2 Weeks

Currently: 58 °F. Clear. (Weather station: Charlottesville-Albemarle Airport, USA). See more current weather

Past Weather in 37°36'23.0"N, 78°22'51.6"W — Graph

°F

37°36'23.0"N, 78°22'51.6"W Temperature Yesterday

Maximum temperature yesterday: 67 °F (at 3:53 pm)
Minimum temperature yesterday: 57 °F (at 10:53 pm)
Average temperature yesterday: 61 °F

High & Low Weather Summary for the Past Weeks

 TemperatureHumidityPressure
High80 °F (Apr 9, 1:53 pm)90% (Apr 1, 5:53 am)30.19 "Hg (Apr 1, 5:53 am)
Low41 °F (Apr 5, 4:53 am)18% (Mar 30, 5:53 pm)29.28 "Hg (Apr 3, 4:53 pm)
Average59 °F59%29.81 "Hg
* Reported Mar 28 11:53 pm — Apr 12 11:53 pm, 37°36'23.0"N, 78°22'51.6"W. Weather by CustomWeather, © 2024

Note: Actual official high and low records may vary slightly from our data, if they occured in-between our weather recording intervals... More about our weather records

37°36'23.0"N, 78°22'51.6"W Weather History for the Previous 24 Hours

Scroll right to see more
 ConditionsComfort  
Time TempWeatherWind HumidityBarometerVisibility
11:53 pm
Fri, Apr 12
58 °FClear.8 mph47%29.72 "Hg10 mi
10:53 pm57 °FClear.9 mph49%29.71 "Hg10 mi
9:53 pm58 °FClear.6 mph46%29.71 "Hg10 mi
8:53 pm59 °FClear.N/A44%29.70 "Hg10 mi
7:53 pm60 °FPassing clouds.N/A42%29.66 "Hg10 mi
6:53 pm61 °FScattered clouds.6 mph44%29.64 "Hg10 mi
5:53 pm61 °FScattered clouds.5 mph44%29.64 "Hg10 mi
4:53 pm62 °FBroken clouds.16 mph43%29.62 "Hg10 mi
3:53 pm67 °FPassing clouds.15 mph33%29.57 "Hg10 mi
2:53 pm64 °FOvercast.9 mph37%29.58 "Hg10 mi
1:53 pm59 °FLight rain. Cloudy.6 mph54%29.59 "Hg10 mi
12:53 pm64 °FMostly cloudy.7 mph40%29.56 "Hg10 mi
11:53 am63 °FPassing clouds.13 mph45%29.56 "Hg10 mi
10:53 am62 °FOvercast.8 mph44%29.54 "Hg10 mi
9:53 am63 °FScattered clouds.12 mph41%29.50 "Hg10 mi
8:53 am61 °FMore clouds than sun.6 mph48%29.50 "Hg10 mi
7:53 am61 °FPartly sunny.16 mph48%29.46 "Hg10 mi
6:53 am60 °FOvercast.12 mph58%29.41 "Hg10 mi
6:07 am61 °FPassing clouds.12 mph62%29.39 "Hg10 mi
4:53 am62 °FLight rain. Overcast.7 mph86%29.34 "Hg10 mi
4:15 am62 °FLight rain. Mostly cloudy.9 mph86%29.36 "Hg9 mi
2:53 am62 °FPassing clouds.12 mph83%29.34 "Hg10 mi
2:35 am62 °FMostly cloudy.13 mph86%29.36 "Hg10 mi
2:06 am63 °FPassing clouds.15 mph84%29.35 "Hg10 mi
Weather by CustomWeather, © 2024

See weather overview